sensor_id;sensor_type;location;lat;lon;timestamp;pressure;altitude;pressure_sealevel;temperature;humidity
1616;BME280;801;47.982;7.810;2022-11-25T03:30:25;98486.91;;;6.71;100.00
1616;BME280;801;47.982;7.810;2022-11-25T03:32:52;98484.41;;;6.81;100.00
1616;BME280;801;47.982;7.810;2022-11-25T03:35:19;98482.00;;;6.79;100.00
1616;BME280;801;47.982;7.810;2022-11-25T03:37:46;98490.31;;;6.95;100.00
1616;BME280;801;47.982;7.810;2022-11-25T03:40:14;98488.34;;;6.50;100.00
1616;BME280;801;47.982;7.810;2022-11-25T03:42:41;98483.78;;;6.21;100.00
1616;BME280;801;47.982;7.810;2022-11-25T03:45:09;98492.94;;;6.66;100.00
1616;BME280;801;47.982;7.810;2022-11-25T03:47:38;98497.06;;;6.85;100.00
1616;BME280;801;47.982;7.810;2022-11-25T03:50:06;98490.44;;;6.88;100.00
1616;BME280;801;47.982;7.810;2022-11-25T03:52:33;98495.16;;;6.98;100.00
1616;BME280;801;47.982;7.810;2022-11-25T03:54:59;98495.16;;;6.98;100.00
1616;BME280;801;47.982;7.810;2022-11-25T03:57:26;98493.47;;;7.09;100.00
1616;BME280;801;47.982;7.810;2022-11-25T03:59:52;98489.03;;;7.14;100.00
1616;BME280;801;47.982;7.810;2022-11-25T04:02:19;98499.94;;;6.96;100.00
1616;BME280;801;47.982;7.810;2022-11-25T04:04:47;98482.91;;;6.44;100.00
1616;BME280;801;47.982;7.810;2022-11-25T04:07:13;98481.72;;;6.93;100.00
1616;BME280;801;47.982;7.810;2022-11-25T04:09:40;98482.84;;;6.97;100.00
1616;BME280;801;47.982;7.810;2022-11-25T04:12:08;98478.19;;;7.04;100.00
1616;BME280;801;47.982;7.810;2022-11-25T04:14:52;98471.34;;;6.96;100.00
1616;BME280;801;47.982;7.810;2022-11-25T04:17:18;98468.06;;;6.77;100.00
1616;BME280;801;47.982;7.810;2022-11-25T04:19:45;98468.34;;;6.64;100.00
1616;BME280;801;47.982;7.810;2022-11-25T04:22:12;98467.09;;;6.55;100.00
1616;BME280;801;47.982;7.810;2022-11-25T04:24:39;98467.25;;;6.77;100.00
1616;BME280;801;47.982;7.810;2022-11-25T04:27:05;98473.97;;;6.79;100.00
1616;BME280;801;47.982;7.810;2022-11-25T04:29:32;98468.38;;;6.81;100.00
1616;BME280;801;47.982;7.810;2022-11-25T04:31:58;98460.66;;;6.27;100.00
1616;BME280;801;47.982;7.810;2022-11-25T04:34:25;98468.22;;;6.30;100.00
1616;BME280;801;47.982;7.810;2022-11-25T04:36:52;98455.56;;;6.66;100.00
1616;BME280;801;47.982;7.810;2022-11-25T04:39:19;98453.19;;;6.81;100.00
1616;BME280;801;47.982;7.810;2022-11-25T04:41:46;98455.84;;;6.53;100.00
1616;BME280;801;47.982;7.810;2022-11-25T04:44:12;98454.22;;;6.52;100.00
1616;BME280;801;47.982;7.810;2022-11-25T04:46:40;98461.84;;;6.60;100.00
1616;BME280;801;47.982;7.810;2022-11-25T04:49:08;98470.97;;;6.35;100.00
1616;BME280;801;47.982;7.810;2022-11-25T04:51:36;98469.06;;;6.59;100.00
1616;BME280;801;47.982;7.810;2022-11-25T04:54:02;98465.91;;;6.62;100.00
1616;BME280;801;47.982;7.810;2022-11-25T04:56:30;98478.75;;;6.77;100.00
1616;BME280;801;47.982;7.810;2022-11-25T04:58:57;98482.09;;;6.84;100.00
1616;BME280;801;47.982;7.810;2022-11-25T05:01:41;98490.16;;;7.18;100.00
1616;BME280;801;47.982;7.810;2022-11-25T05:04:08;98502.00;;;7.05;100.00
1616;BME280;801;47.982;7.810;2022-11-25T05:06:34;98504.69;;;6.94;100.00
1616;BME280;801;47.982;7.810;2022-11-25T05:09:01;98510.09;;;7.27;100.00
1616;BME280;801;47.982;7.810;2022-11-25T05:11:28;98523.16;;;7.24;100.00
1616;BME280;801;47.982;7.810;2022-11-25T05:13:56;98521.88;;;6.98;100.00
1616;BME280;801;47.982;7.810;2022-11-25T05:16:23;98521.88;;;6.98;100.00
1616;BME280;801;47.982;7.810;2022-11-25T05:18:49;98531.69;;;6.80;100.00
1616;BME280;801;47.982;7.810;2022-11-25T05:21:16;98536.03;;;6.98;100.00
1616;BME280;801;47.982;7.810;2022-11-25T05:23:42;98546.19;;;6.84;100.00
1616;BME280;801;47.982;7.810;2022-11-25T05:26:09;98542.84;;;6.77;100.00
1616;BME280;801;47.982;7.810;2022-11-25T05:28:35;98543.34;;;6.62;100.00
1616;BME280;801;47.982;7.810;2022-11-25T05:31:04;98545.81;;;6.40;100.00
1616;BME280;801;47.982;7.810;2022-11-25T05:33:30;98546.53;;;6.48;100.00
1616;BME280;801;47.982;7.810;2022-11-25T05:35:58;98538.38;;;6.42;100.00
1616;BME280;801;47.982;7.810;2022-11-25T05:38:26;98558.16;;;6.30;100.00
1616;BME280;801;47.982;7.810;2022-11-25T05:40:52;98559.63;;;6.49;100.00
1616;BME280;801;47.982;7.810;2022-11-25T05:43:19;98558.72;;;6.20;100.00
1616;BME280;801;47.982;7.810;2022-11-25T05:45:46;98561.28;;;6.15;100.00
1616;BME280;801;47.982;7.810;2022-11-25T05:48:14;98562.88;;;6.16;100.00
1616;BME280;801;47.982;7.810;2022-11-25T05:50:40;98556.53;;;6.17;100.00
1616;BME280;801;47.982;7.810;2022-11-25T05:53:07;98563.59;;;6.35;100.00
1616;BME280;801;47.982;7.810;2022-11-25T05:55:34;98564.69;;;6.62;100.00
1616;BME280;801;47.982;7.810;2022-11-25T05:58:00;98558.00;;;6.48;100.00
1616;BME280;801;47.982;7.810;2022-11-25T06:00:29;98563.34;;;6.48;100.00
1616;BME280;801;47.982;7.810;2022-11-25T06:02:55;98555.25;;;6.19;100.00
1616;BME280;801;47.982;7.810;2022-11-25T06:05:23;98563.41;;;6.77;100.00
1616;BME280;801;47.982;7.810;2022-11-25T06:07:50;98559.03;;;6.59;100.00
1616;BME280;801;47.982;7.810;2022-11-25T06:10:17;98568.44;;;6.50;100.00
1616;BME280;801;47.982;7.810;2022-11-25T06:12:44;98568.19;;;6.63;100.00
1616;BME280;801;47.982;7.810;2022-11-25T06:15:11;98574.22;;;6.58;100.00
1616;BME280;801;47.982;7.810;2022-11-25T06:17:38;98571.16;;;6.78;100.00
1616;BME280;801;47.982;7.810;2022-11-25T06:20:06;98567.50;;;6.56;100.00
1616;BME280;801;47.982;7.810;2022-11-25T06:22:34;98577.78;;;6.76;100.00
1616;BME280;801;47.982;7.810;2022-11-25T06:25:01;98580.38;;;7.11;100.00
1616;BME280;801;47.982;7.810;2022-11-25T06:27:27;98581.13;;;6.95;100.00
1616;BME280;801;47.982;7.810;2022-11-25T06:29:54;98580.78;;;6.91;100.00
1616;BME280;801;47.982;7.810;2022-11-25T06:32:20;98576.31;;;6.68;100.00
1616;BME280;801;47.982;7.810;2022-11-25T06:34:47;98582.97;;;7.06;100.00
1616;BME280;801;47.982;7.810;2022-11-25T06:37:13;98583.41;;;7.03;100.00
1616;BME280;801;47.982;7.810;2022-11-25T06:39:41;98584.94;;;7.56;100.00
1616;BME280;801;47.982;7.810;2022-11-25T06:42:08;98578.88;;;8.45;100.00
1616;BME280;801;47.982;7.810;2022-11-25T06:44:34;98578.78;;;8.57;100.00
1616;BME280;801;47.982;7.810;2022-11-25T06:47:01;98581.72;;;8.56;100.00
1616;BME280;801;47.982;7.810;2022-11-25T06:49:27;98581.34;;;8.69;100.00
1616;BME280;801;47.982;7.810;2022-11-25T06:51:54;98591.16;;;9.02;100.00
1616;BME280;801;47.982;7.810;2022-11-25T06:54:20;98592.63;;;9.15;100.00
1616;BME280;801;47.982;7.810;2022-11-25T06:56:48;98599.28;;;9.12;100.00
1616;BME280;801;47.982;7.810;2022-11-25T06:59:18;98601.41;;;9.10;100.00
1616;BME280;801;47.982;7.810;2022-11-25T07:01:45;98601.53;;;9.21;100.00
1616;BME280;801;47.982;7.810;2022-11-25T07:04:11;98603.41;;;9.42;100.00
1616;BME280;801;47.982;7.810;2022-11-25T07:06:38;98602.97;;;9.06;100.00
1616;BME280;801;47.982;7.810;2022-11-25T07:09:04;98611.59;;;9.85;100.00
1616;BME280;801;47.982;7.810;2022-11-25T07:11:33;98612.59;;;10.11;100.00
1616;BME280;801;47.982;7.810;2022-11-25T07:14:03;98616.09;;;9.79;100.00
1616;BME280;801;47.982;7.810;2022-11-25T07:16:30;98616.69;;;10.18;100.00
1616;BME280;801;47.982;7.810;2022-11-25T07:18:57;98624.69;;;10.41;100.00
1616;BME280;801;47.982;7.810;2022-11-25T07:21:26;98632.81;;;10.56;100.00
1616;BME280;801;47.982;7.810;2022-11-25T07:23:53;98634.25;;;10.69;100.00
1616;BME280;801;47.982;7.810;2022-11-25T07:26:22;98639.97;;;10.83;100.00
1616;BME280;801;47.982;7.810;2022-11-25T07:28:51;98645.06;;;10.79;100.00
1616;BME280;801;47.982;7.810;2022-11-25T07:31:22;98646.81;;;11.06;100.00
1616;BME280;801;47.982;7.810;2022-11-25T07:33:50;98654.47;;;10.76;100.00
1616;BME280;801;47.982;7.810;2022-11-25T07:36:17;98645.72;;;11.01;100.00
1616;BME280;801;47.982;7.810;2022-11-25T07:38:43;98660.41;;;10.78;100.00
1616;BME280;801;47.982;7.810;2022-11-25T07:41:12;98660.09;;;10.75;100.00
1616;BME280;801;47.982;7.810;2022-11-25T07:43:39;98676.16;;;10.65;100.00
1616;BME280;801;47.982;7.810;2022-11-25T07:46:10;98674.13;;;10.87;100.00
1616;BME280;801;47.982;7.810;2022-11-25T07:48:39;98672.41;;;10.66;100.00
1616;BME280;801;47.982;7.810;2022-11-25T07:51:13;98686.50;;;10.83;100.00
1616;BME280;801;47.982;7.810;2022-11-25T07:53:39;98689.88;;;10.68;100.00
1616;BME280;801;47.982;7.810;2022-11-25T07:56:06;98693.88;;;10.61;100.00
1616;BME280;801;47.982;7.810;2022-11-25T07:58:33;98701.38;;;10.58;100.00
1616;BME280;801;47.982;7.810;2022-11-25T08:01:01;98699.38;;;10.44;100.00
1616;BME280;801;47.982;7.810;2022-11-25T08:03:27;98709.25;;;10.38;100.00
1616;BME280;801;47.982;7.810;2022-11-25T08:05:59;98716.50;;;10.37;100.00
1616;BME280;801;47.982;7.810;2022-11-25T08:08:25;98720.72;;;10.28;100.00
1616;BME280;801;47.982;7.810;2022-11-25T08:10:52;98728.16;;;10.21;100.00
1616;BME280;801;47.982;7.810;2022-11-25T08:13:18;98729.72;;;10.17;100.00
1616;BME280;801;47.982;7.810;2022-11-25T08:15:45;98731.66;;;10.22;100.00
1616;BME280;801;47.982;7.810;2022-11-25T08:18:11;98730.50;;;9.85;100.00
1616;BME280;801;47.982;7.810;2022-11-25T08:20:38;98739.22;;;9.75;100.00
1616;BME280;801;47.982;7.810;2022-11-25T08:23:06;98723.69;;;9.77;100.00
1616;BME280;801;47.982;7.810;2022-11-25T08:25:32;98727.13;;;9.51;100.00
1616;BME280;801;47.982;7.810;2022-11-25T08:28:03;98719.72;;;9.58;100.00
1616;BME280;801;47.982;7.810;2022-11-25T08:30:30;98712.44;;;9.31;100.00
1616;BME280;801;47.982;7.810;2022-11-25T08:32:56;98717.72;;;9.26;100.00
1616;BME280;801;47.982;7.810;2022-11-25T08:35:24;98719.84;;;9.24;100.00
1616;BME280;801;47.982;7.810;2022-11-25T08:37:50;98727.16;;;9.29;100.00
1616;BME280;801;47.982;7.810;2022-11-25T08:40:18;98722.94;;;9.16;100.00
1616;BME280;801;47.982;7.810;2022-11-25T08:42:45;98720.78;;;9.35;100.00
1616;BME280;801;47.982;7.810;2022-11-25T08:45:12;98728.00;;;9.34;100.00
1616;BME280;801;47.982;7.810;2022-11-25T08:47:38;98729.19;;;9.44;100.00
1616;BME280;801;47.982;7.810;2022-11-25T08:50:06;98726.03;;;9.47;100.00
1616;BME280;801;47.982;7.810;2022-11-25T08:52:34;98734.09;;;9.47;100.00
1616;BME280;801;47.982;7.810;2022-11-25T08:55:00;98734.66;;;9.49;100.00
1616;BME280;801;47.982;7.810;2022-11-25T08:57:28;98739.53;;;9.35;100.00
1616;BME280;801;47.982;7.810;2022-11-25T08:59:55;98748.13;;;9.54;100.00
1616;BME280;801;47.982;7.810;2022-11-25T09:02:21;98750.28;;;9.57;100.00
1616;BME280;801;47.982;7.810;2022-11-25T09:04:49;98745.22;;;9.39;100.00
1616;BME280;801;47.982;7.810;2022-11-25T09:07:15;98754.31;;;9.38;100.00
1616;BME280;801;47.982;7.810;2022-11-25T09:09:42;98764.63;;;9.46;100.00
1616;BME280;801;47.982;7.810;2022-11-25T09:12:09;98772.81;;;9.56;100.00
1616;BME280;801;47.982;7.810;2022-11-25T09:14:37;98760.25;;;9.40;100.00
1616;BME280;801;47.982;7.810;2022-11-25T09:17:08;98773.25;;;9.48;100.00
1616;BME280;801;47.982;7.810;2022-11-25T09:19:34;98753.91;;;9.46;100.00
1616;BME280;801;47.982;7.810;2022-11-25T09:22:01;98764.69;;;9.51;100.00
1616;BME280;801;47.982;7.810;2022-11-25T09:24:27;98770.63;;;9.53;100.00
1616;BME280;801;47.982;7.810;2022-11-25T09:26:54;98761.78;;;9.74;100.00
1616;BME280;801;47.982;7.810;2022-11-25T09:29:20;98770.81;;;9.68;100.00
1616;BME280;801;47.982;7.810;2022-11-25T09:31:48;98769.19;;;9.67;100.00
1616;BME280;801;47.982;7.810;2022-11-25T09:34:15;98768.13;;;9.68;100.00
1616;BME280;801;47.982;7.810;2022-11-25T09:36:44;98773.13;;;9.82;100.00
1616;BME280;801;47.982;7.810;2022-11-25T09:39:10;98765.63;;;9.84;100.00
1616;BME280;801;47.982;7.810;2022-11-25T09:41:54;98765.28;;;10.02;100.00
1616;BME280;801;47.982;7.810;2022-11-25T09:44:49;98771.78;;;10.06;100.00
1616;BME280;801;47.982;7.810;2022-11-25T09:47:46;98767.00;;;10.13;100.00
1616;BME280;801;47.982;7.810;2022-11-25T09:50:19;98772.47;;;10.18;100.00
1616;BME280;801;47.982;7.810;2022-11-25T09:52:56;98774.66;;;10.27;100.00
1616;BME280;801;47.982;7.810;2022-11-25T09:55:25;98777.13;;;10.28;100.00
1616;BME280;801;47.982;7.810;2022-11-25T09:57:58;98775.38;;;10.39;100.00
1616;BME280;801;47.982;7.810;2022-11-25T10:00:33;98776.22;;;10.45;100.00
1616;BME280;801;47.982;7.810;2022-11-25T10:03:06;98776.22;;;10.77;100.00
1616;BME280;801;47.982;7.810;2022-11-25T10:05:38;98767.38;;;10.76;100.00
1616;BME280;801;47.982;7.810;2022-11-25T10:08:09;98771.31;;;10.69;100.00
1616;BME280;801;47.982;7.810;2022-11-25T10:10:41;98774.28;;;10.40;100.00
1616;BME280;801;47.982;7.810;2022-11-25T10:13:15;98784.97;;;10.30;100.00
1616;BME280;801;47.982;7.810;2022-11-25T10:15:46;98780.78;;;10.44;100.00
1616;BME280;801;47.982;7.810;2022-11-25T10:18:19;98795.47;;;10.64;100.00
1616;BME280;801;47.982;7.810;2022-11-25T10:20:49;98786.53;;;10.58;100.00
1616;BME280;801;47.982;7.810;2022-11-25T10:23:21;98790.56;;;10.55;100.00
1616;BME280;801;47.982;7.810;2022-11-25T10:25:52;98776.91;;;10.62;100.00
1616;BME280;801;47.982;7.810;2022-11-25T10:28:22;98787.66;;;10.94;100.00
1616;BME280;801;47.982;7.810;2022-11-25T10:30:53;98786.97;;;10.72;100.00
1616;BME280;801;47.982;7.810;2022-11-25T10:33:27;98777.84;;;10.78;100.00
1616;BME280;801;47.982;7.810;2022-11-25T10:35:56;98780.00;;;10.49;100.00
1616;BME280;801;47.982;7.810;2022-11-25T10:38:28;98779.88;;;10.61;100.00
1616;BME280;801;47.982;7.810;2022-11-25T10:40:57;98801.25;;;10.50;100.00
1616;BME280;801;47.982;7.810;2022-11-25T10:43:24;98788.34;;;10.47;100.00
1616;BME280;801;47.982;7.810;2022-11-25T10:45:57;98788.78;;;10.66;100.00
1616;BME280;801;47.982;7.810;2022-11-25T10:48:44;98791.84;;;10.48;100.00
1616;BME280;801;47.982;7.810;2022-11-25T10:51:26;98796.75;;;10.29;100.00
1616;BME280;801;47.982;7.810;2022-11-25T10:54:08;98805.25;;;10.21;100.00
1616;BME280;801;47.982;7.810;2022-11-25T10:56:42;98807.63;;;10.17;100.00
1616;BME280;801;47.982;7.810;2022-11-25T10:59:12;98806.50;;;10.13;100.00
1616;BME280;801;47.982;7.810;2022-11-25T11:01:39;98811.41;;;9.94;100.00
1616;BME280;801;47.982;7.810;2022-11-25T11:04:11;98818.31;;;9.90;100.00
1616;BME280;801;47.982;7.810;2022-11-25T11:06:40;98811.81;;;9.86;100.00
1616;BME280;801;47.982;7.810;2022-11-25T11:09:30;98818.06;;;9.69;100.00
1616;BME280;801;47.982;7.810;2022-11-25T11:11:57;98811.06;;;9.90;100.00
1616;BME280;801;47.982;7.810;2022-11-25T11:14:32;98824.25;;;9.70;100.00
1616;BME280;801;47.982;7.810;2022-11-25T11:16:58;98813.13;;;9.61;100.00
1616;BME280;801;47.982;7.810;2022-11-25T11:19:28;98813.47;;;9.87;100.00
1616;BME280;801;47.982;7.810;2022-11-25T11:21:57;98808.66;;;9.67;100.00
1616;BME280;801;47.982;7.810;2022-11-25T11:24:39;98819.25;;;9.79;100.00
1616;BME280;801;47.982;7.810;2022-11-25T11:27:15;98820.81;;;9.74;100.00
1616;BME280;801;47.982;7.810;2022-11-25T11:29:44;98820.94;;;9.63;100.00
1616;BME280;801;47.982;7.810;2022-11-25T11:32:22;98813.25;;;9.93;100.00
1616;BME280;801;47.982;7.810;2022-11-25T11:35:02;98820.69;;;10.08;100.00
1616;BME280;801;47.982;7.810;2022-11-25T11:37:37;98818.03;;;10.13;100.00
1616;BME280;801;47.982;7.810;2022-11-25T11:40:24;98840.09;;;9.93;100.00
1616;BME280;801;47.982;7.810;2022-11-25T11:43:13;98829.16;;;10.22;100.00
1616;BME280;801;47.982;7.810;2022-11-25T11:45:59;98827.94;;;10.30;100.00
1616;BME280;801;47.982;7.810;2022-11-25T11:48:37;98840.09;;;9.93;100.00
1616;BME280;801;47.982;7.810;2022-11-25T11:51:19;98835.56;;;9.94;100.00
1616;BME280;801;47.982;7.810;2022-11-25T11:53:57;98842.28;;;9.96;100.00
1616;BME280;801;47.982;7.810;2022-11-25T11:56:36;98840.66;;;10.17;100.00
1616;BME280;801;47.982;7.810;2022-11-25T11:59:29;98841.41;;;9.91;100.00
1616;BME280;801;47.982;7.810;2022-11-25T12:02:13;98844.84;;;9.86;100.00
1616;BME280;801;47.982;7.810;2022-11-25T12:04:44;98842.72;;;10.10;100.00
1616;BME280;801;47.982;7.810;2022-11-25T12:07:22;98837.63;;;9.87;100.00
1616;BME280;801;47.982;7.810;2022-11-25T12:09:54;98844.22;;;10.45;100.00
1616;BME280;801;47.982;7.810;2022-11-25T12:12:31;98847.38;;;10.20;100.00
1616;BME280;801;47.982;7.810;2022-11-25T12:15:03;98851.59;;;11.19;100.00
1616;BME280;801;47.982;7.810;2022-11-25T12:17:43;98860.78;;;11.66;100.00
1616;BME280;801;47.982;7.810;2022-11-25T12:20:16;98860.88;;;11.39;100.00
1616;BME280;801;47.982;7.810;2022-11-25T12:22:49;98870.22;;;10.67;100.00
1616;BME280;801;47.982;7.810;2022-11-25T12:25:18;98863.00;;;10.99;100.00
1616;BME280;801;47.982;7.810;2022-11-25T12:27:50;98873.97;;;10.93;100.00
1616;BME280;801;47.982;7.810;2022-11-25T12:30:18;98874.34;;;11.07;100.00
1616;BME280;801;47.982;7.810;2022-11-25T12:32:51;98869.63;;;11.24;100.00
1616;BME280;801;47.982;7.810;2022-11-25T12:35:24;98885.47;;;11.20;100.00
1616;BME280;801;47.982;7.810;2022-11-25T12:38:04;98886.13;;;10.73;100.00
1616;BME280;801;47.982;7.810;2022-11-25T12:40:34;98890.09;;;10.66;100.00
1616;BME280;801;47.982;7.810;2022-11-25T12:43:12;98900.34;;;10.69;100.00
1616;BME280;801;47.982;7.810;2022-11-25T12:45:45;98900.59;;;10.94;100.00
1616;BME280;801;47.982;7.810;2022-11-25T12:48:16;98895.44;;;10.61;100.00
1616;BME280;801;47.982;7.810;2022-11-25T12:50:51;98900.41;;;10.74;100.00
1616;BME280;801;47.982;7.810;2022-11-25T12:53:28;98899.91;;;11.09;100.00
1616;BME280;801;47.982;7.810;2022-11-25T12:55:58;98894.09;;;10.90;100.00
1616;BME280;801;47.982;7.810;2022-11-25T12:58:40;98902.22;;;10.68;100.00
1616;BME280;801;47.982;7.810;2022-11-25T13:01:31;98900.13;;;10.48;100.00
1616;BME280;801;47.982;7.810;2022-11-25T13:04:35;98899.44;;;10.85;100.00
1616;BME280;801;47.982;7.810;2022-11-25T13:07:26;98891.91;;;10.87;100.00
1616;BME280;801;47.982;7.810;2022-11-25T13:13:21;98908.47;;;11.38;100.00
1616;BME280;801;47.982;7.810;2022-11-25T13:15:52;98909.38;;;11.49;100.00
1616;BME280;801;47.982;7.810;2022-11-25T13:18:23;98915.19;;;11.36;100.00
1616;BME280;801;47.982;7.810;2022-11-25T13:20:52;98927.16;;;11.50;100.00
1616;BME280;801;47.982;7.810;2022-11-25T13:23:29;98932.81;;;11.54;100.00
1616;BME280;801;47.982;7.810;2022-11-25T13:26:33;98937.75;;;11.67;100.00
1616;BME280;801;47.982;7.810;2022-11-25T13:32:32;98941.69;;;12.39;100.00
1616;BME280;801;47.982;7.810;2022-11-25T13:35:29;98953.94;;;12.73;100.00
1616;BME280;801;47.982;7.810;2022-11-25T13:37:56;98960.16;;;14.27;100.00
1616;BME280;801;47.982;7.810;2022-11-25T13:40:32;98954.34;;;14.64;100.00
1616;BME280;801;47.982;7.810;2022-11-25T13:43:01;98959.66;;;14.85;100.00
1616;BME280;801;47.982;7.810;2022-11-25T13:45:31;98965.38;;;14.78;100.00
1616;BME280;801;47.982;7.810;2022-11-25T13:48:09;98964.16;;;15.39;100.00
1616;BME280;801;47.982;7.810;2022-11-25T13:50:36;98965.50;;;15.02;100.00
1616;BME280;801;47.982;7.810;2022-11-25T13:53:05;98972.31;;;14.24;100.00
1616;BME280;801;47.982;7.810;2022-11-25T13:55:35;98972.91;;;13.19;100.00
1616;BME280;801;47.982;7.810;2022-11-25T13:58:17;98983.25;;;12.54;100.00
1616;BME280;801;47.982;7.810;2022-11-25T14:00:59;98976.84;;;12.12;100.00
1616;BME280;801;47.982;7.810;2022-11-25T14:03:49;98976.09;;;12.17;100.00
1616;BME280;801;47.982;7.810;2022-11-25T14:06:31;98983.69;;;12.30;100.00
1616;BME280;801;47.982;7.810;2022-11-25T14:09:03;98988.41;;;12.08;100.00
1616;BME280;801;47.982;7.810;2022-11-25T14:11:39;98989.31;;;12.23;100.00
1616;BME280;801;47.982;7.810;2022-11-25T14:14:22;98985.97;;;12.59;100.00
1616;BME280;801;47.982;7.810;2022-11-25T14:17:03;98987.53;;;12.39;100.00
1616;BME280;801;47.982;7.810;2022-11-25T14:19:57;98984.31;;;11.95;100.00
1616;BME280;801;47.982;7.810;2022-11-25T14:22:46;98989.47;;;12.07;100.00
1616;BME280;801;47.982;7.810;2022-11-25T14:25:23;98995.19;;;12.15;100.00
1616;BME280;801;47.982;7.810;2022-11-25T14:27:57;99004.84;;;11.41;100.00
1616;BME280;801;47.982;7.810;2022-11-25T14:30:25;99021.09;;;10.97;100.00
1616;BME280;801;47.982;7.810;2022-11-25T14:32:55;99018.53;;;10.64;100.00
1616;BME280;801;47.982;7.810;2022-11-25T14:35:27;99015.06;;;10.85;100.00
1616;BME280;801;47.982;7.810;2022-11-25T14:37:58;99023.34;;;10.84;100.00
1616;BME280;801;47.982;7.810;2022-11-25T14:40:31;99015.31;;;11.11;100.00
1616;BME280;801;47.982;7.810;2022-11-25T14:43:04;99030.34;;;10.24;100.00
1616;BME280;801;47.982;7.810;2022-11-25T14:45:32;99034.78;;;9.96;100.00
1616;BME280;801;47.982;7.810;2022-11-25T14:48:11;99037.53;;;9.84;100.00
1616;BME280;801;47.982;7.810;2022-11-25T14:50:40;99040.72;;;9.98;100.00
1616;BME280;801;47.982;7.810;2022-11-25T14:53:07;99038.03;;;9.98;100.00
1616;BME280;801;47.982;7.810;2022-11-25T14:55:35;99040.13;;;10.13;100.00
1616;BME280;801;47.982;7.810;2022-11-25T14:58:02;99036.63;;;9.62;100.00
1616;BME280;801;47.982;7.810;2022-11-25T15:00:28;99040.91;;;9.91;100.00
1616;BME280;801;47.982;7.810;2022-11-25T15:02:57;99040.88;;;10.08;100.00
1616;BME280;801;47.982;7.810;2022-11-25T15:05:28;99044.72;;;10.29;100.00
1616;BME280;801;47.982;7.810;2022-11-25T15:07:59;99052.59;;;10.36;100.00
1616;BME280;801;47.982;7.810;2022-11-25T15:10:35;99048.81;;;10.20;100.00
1616;BME280;801;47.982;7.810;2022-11-25T15:13:13;99053.84;;;10.50;100.00
1616;BME280;801;47.982;7.810;2022-11-25T15:15:44;99057.47;;;10.39;100.00
1616;BME280;801;47.982;7.810;2022-11-25T15:18:16;99066.09;;;10.41;100.00
1616;BME280;801;47.982;7.810;2022-11-25T15:20:46;99059.25;;;10.16;100.00
1616;BME280;801;47.982;7.810;2022-11-25T15:23:22;99070.31;;;10.20;100.00
1616;BME280;801;47.982;7.810;2022-11-25T15:25:51;99081.22;;;9.80;100.00
1616;BME280;801;47.982;7.810;2022-11-25T15:28:18;99085.13;;;9.89;100.00
1616;BME280;801;47.982;7.810;2022-11-25T15:30:55;99091.56;;;9.88;100.00
1616;BME280;801;47.982;7.810;2022-11-25T15:33:23;99085.75;;;9.62;100.00
1616;BME280;801;47.982;7.810;2022-11-25T15:35:50;99096.81;;;9.49;100.00
1616;BME280;801;47.982;7.810;2022-11-25T15:38:19;99110.00;;;9.67;100.00
1616;BME280;801;47.982;7.810;2022-11-25T15:41:00;99102.31;;;9.42;100.00
1616;BME280;801;47.982;7.810;2022-11-25T15:43:29;99102.41;;;9.47;100.00
1616;BME280;801;47.982;7.810;2022-11-25T15:45:59;99116.41;;;9.66;100.00
1616;BME280;801;47.982;7.810;2022-11-25T15:48:29;99110.16;;;9.77;100.00
1616;BME280;801;47.982;7.810;2022-11-25T15:51:00;99120.47;;;9.52;100.00
1616;BME280;801;47.982;7.810;2022-11-25T15:53:30;99120.84;;;9.44;100.00
1616;BME280;801;47.982;7.810;2022-11-25T15:56:01;99125.91;;;9.28;100.00
1616;BME280;801;47.982;7.810;2022-11-25T15:58:28;99121.13;;;9.30;100.00
1616;BME280;801;47.982;7.810;2022-11-25T16:01:00;99129.31;;;9.52;100.00
1616;BME280;801;47.982;7.810;2022-11-25T16:03:27;99128.03;;;9.55;100.00
1616;BME280;801;47.982;7.810;2022-11-25T16:05:56;99122.91;;;9.53;100.00
1616;BME280;801;47.982;7.810;2022-11-25T16:08:31;99128.44;;;9.47;100.00
1616;BME280;801;47.982;7.810;2022-11-25T16:11:09;99130.41;;;9.40;100.00
1616;BME280;801;47.982;7.810;2022-11-25T16:13:37;99139.53;;;9.39;100.00
1616;BME280;801;47.982;7.810;2022-11-25T16:16:16;99142.22;;;9.39;100.00
1616;BME280;801;47.982;7.810;2022-11-25T16:19:02;99140.56;;;9.38;100.00
1616;BME280;801;47.982;7.810;2022-11-25T16:21:39;99139.03;;;9.42;100.00
1616;BME280;801;47.982;7.810;2022-11-25T16:27:00;99144.47;;;9.59;100.00
1616;BME280;801;47.982;7.810;2022-11-25T16:29:31;99140.97;;;9.58;100.00
1616;BME280;801;47.982;7.810;2022-11-25T16:31:58;99149.13;;;9.63;100.00
1616;BME280;801;47.982;7.810;2022-11-25T16:34:25;99151.59;;;9.53;100.00
1616;BME280;801;47.982;7.810;2022-11-25T16:36:52;99152.47;;;9.70;100.00
1616;BME280;801;47.982;7.810;2022-11-25T16:39:20;99154.25;;;9.65;100.00
1616;BME280;801;47.982;7.810;2022-11-25T16:41:54;99152.28;;;9.31;100.00
1616;BME280;801;47.982;7.810;2022-11-25T16:44:23;99151.03;;;9.22;100.00
1616;BME280;801;47.982;7.810;2022-11-25T16:46:52;99159.34;;;9.38;100.00
1616;BME280;801;47.982;7.810;2022-11-25T16:49:20;99162.88;;;9.26;100.00
1616;BME280;801;47.982;7.810;2022-11-25T16:51:47;99178.94;;;8.86;100.00
1616;BME280;801;47.982;7.810;2022-11-25T16:54:16;99186.47;;;9.24;100.00
1616;BME280;801;47.982;7.810;2022-11-25T16:56:45;99193.03;;;9.45;100.00
1616;BME280;801;47.982;7.810;2022-11-25T16:59:14;99189.16;;;9.53;100.00
1616;BME280;801;47.982;7.810;2022-11-25T17:01:42;99196.84;;;9.61;100.00
1616;BME280;801;47.982;7.810;2022-11-25T17:04:10;99202.34;;;9.54;100.00
1616;BME280;801;47.982;7.810;2022-11-25T17:06:37;99214.69;;;9.15;100.00
1616;BME280;801;47.982;7.810;2022-11-25T17:09:04;99201.00;;;9.40;100.00
1616;BME280;801;47.982;7.810;2022-11-25T17:11:32;99208.53;;;9.55;100.00
1616;BME280;801;47.982;7.810;2022-11-25T17:14:03;99210.69;;;9.29;100.00
1616;BME280;801;47.982;7.810;2022-11-25T17:16:31;99212.31;;;9.30;100.00
1616;BME280;801;47.982;7.810;2022-11-25T17:18:59;99223.44;;;9.10;100.00
1616;BME280;801;47.982;7.810;2022-11-25T17:21:26;99238.53;;;9.52;100.00
1616;BME280;801;47.982;7.810;2022-11-25T17:23:54;99238.38;;;9.59;100.00
1616;BME280;801;47.982;7.810;2022-11-25T17:26:25;99238.34;;;9.70;100.00
1616;BME280;801;47.982;7.810;2022-11-25T17:28:54;99239.50;;;9.74;100.00